< < Back
Terminal Aerodrome Forecast


Current Version              Previous Versions:   1  2  3  4  5  6  7  8  9  

Terminal Aerodrome Forecast

543
FTUS44 KBMX 271132
TAFMGM
TAF
KMGM 271132Z 2712/2812 00000KT P6SM FEW050
     FM271500 04008KT P6SM SCT060
     FM280100 04002KT P6SM SKC=



Latest METAR

730
SAUS80 KWBC 281200 RRC
MTRMGM
METAR KMGM 281153Z 05005KT 10SM CLR 22/19 A3003 RMK AO2 SLP165 T02220189
10228 20217 53012


USA.gov is the U.S. government's official web portal to all federal, state and local government web resources and services.